Skip Navigation Links
NOAA logo - Click to go to the NOAA homepage
NOAA's National Weather Service
Alaska Aviation Weather Unit
  NWS logo - Click to go to the NWS homepage
Left Navbar Graphic     00 AKDT = 08 GMT

   
NOAA is celebrating 200 years of science, service, and stewardship. Visit the NOAA 200th celebration Web site to learn more.
USA.gov is the U.S. Government's official Web portal to all Federal, state and local government Web resources and services.
Facebook
NWS on Facebook

Important Change Regarding the AAWU Web Presence

 

Over the last several months, the AAWU has been working to navigate its webpages to a nationally supported server. Security, as well as other needs, have necessitated the change.  We have been given an extension for the site changeover while we diligently work at addressing feedback received. As of July 14, 2017, aawu.arh.noaa.gov will be discontinued. The new AAWU web address is weather.gov/aawu. It is now live and will run in-parallel with the old site until it is discontinued on July 14, 2017. Please continue to send any feedback or questions regarding the new webpages to nws.ar.aawu.webauthors@noaa.gov.  Thank you for your patience during this time of transition.
AAWU Home :: Display TAF Add Bookmark
TAF CYQH 102338Z 1100/1112 VRB03KT P6SM FEW140 BKN240
    RMK NXT FCST BY 110600Z=

METAR CYQH 240200Z 08006KT 30SM FEW060 OVC100 13/06 A2976 RMK CU1AC7 SLP096 DENSITY ALT 2700FT= METAR CYQH 240300Z 10003KT 30SM OVC075 12/06 A2976 RMK AC8 SLP095 DENSITY ALT 2700FT= METAR CYQH 240400Z 14004KT 15SM OVC070 12/06 A2975 RMK AC8 SLP091 DENSITY ALT 2700FT= METAR CYQH 240500Z VRB02KT 15SM OVC050 11/08 A2975 RMK SC8 SLP091 DENSITY ALT 2500FT= SPECI CYQH 240503Z 00000KT 10SM -RA OVC050 10/08 A2975 RMK SC8 SLP092 DENSITY ALT 2500FT= METAR CYQH 240600Z VRB02KT 10SM -RA OVC050 10/09 A2975 RMK SC8 CLIMAT 14.5/9.5/0.4 MM SLP092 DENSITY ALT 2400FT= METAR CYQH 240700Z 07003KT 15SM OVC050 09/08 A2974 RMK SC8 SLP088 DENSITY ALT 2400FT= METAR CYQH 240800Z VRB02KT 15SM -SHRA OVC059 10/08 A2974 RMK SC8 SLP088 DENSITY ALT 2400FT=
 Alaska TAF Map

NOAA's National Weather Service
Alaska Aviation Weather Unit
6930 Sand Lake Road
Anchorage, AK 99502-1845
Disclaimer
Credits
Glossary
Privacy Policy
About Us
Career Opportunities
Contact AAWU Internet Services Site last modified: April, 17th 2012